sensor_id;sensor_type;location;lat;lon;timestamp;P1;durP1;ratioP1;P2;durP2;ratioP2
28934;SDS011;16044;52.726;-2.108;2022-12-11T00:00:25;78.95;;;45.58;;
28934;SDS011;16044;52.726;-2.108;2022-12-11T00:02:52;79.65;;;45.83;;
28934;SDS011;16044;52.726;-2.108;2022-12-11T00:05:19;73.97;;;41.35;;
28934;SDS011;16044;52.726;-2.108;2022-12-11T00:07:46;78.20;;;43.30;;
28934;SDS011;16044;52.726;-2.108;2022-12-11T00:10:13;76.38;;;43.25;;
28934;SDS011;16044;52.726;-2.108;2022-12-11T00:12:40;81.70;;;45.53;;
28934;SDS011;16044;52.726;-2.108;2022-12-11T00:15:07;85.22;;;46.67;;
28934;SDS011;16044;52.726;-2.108;2022-12-11T00:17:34;66.25;;;38.83;;
28934;SDS011;16044;52.726;-2.108;2022-12-11T00:20:02;64.30;;;40.25;;
28934;SDS011;16044;52.726;-2.108;2022-12-11T00:22:30;67.20;;;39.67;;
28934;SDS011;16044;52.726;-2.108;2022-12-11T00:24:57;65.75;;;37.00;;
28934;SDS011;16044;52.726;-2.108;2022-12-11T00:27:24;67.47;;;38.97;;
28934;SDS011;16044;52.726;-2.108;2022-12-11T00:29:51;65.80;;;38.65;;
28934;SDS011;16044;52.726;-2.108;2022-12-11T00:32:17;60.38;;;36.00;;
28934;SDS011;16044;52.726;-2.108;2022-12-11T00:34:44;67.22;;;36.80;;
28934;SDS011;16044;52.726;-2.108;2022-12-11T00:37:11;67.00;;;37.20;;
28934;SDS011;16044;52.726;-2.108;2022-12-11T00:39:38;69.95;;;37.42;;
28934;SDS011;16044;52.726;-2.108;2022-12-11T00:42:06;67.50;;;37.05;;
28934;SDS011;16044;52.726;-2.108;2022-12-11T00:44:33;73.63;;;38.65;;
28934;SDS011;16044;52.726;-2.108;2022-12-11T00:47:01;74.00;;;39.72;;
28934;SDS011;16044;52.726;-2.108;2022-12-11T00:49:29;67.47;;;37.20;;
28934;SDS011;16044;52.726;-2.108;2022-12-11T00:51:56;66.82;;;37.47;;
28934;SDS011;16044;52.726;-2.108;2022-12-11T00:54:23;78.53;;;41.35;;
28934;SDS011;16044;52.726;-2.108;2022-12-11T00:56:49;72.65;;;40.20;;
28934;SDS011;16044;52.726;-2.108;2022-12-11T00:59:16;74.55;;;41.33;;
28934;SDS011;16044;52.726;-2.108;2022-12-11T01:01:44;69.07;;;38.63;;
28934;SDS011;16044;52.726;-2.108;2022-12-11T01:04:11;83.32;;;43.35;;
28934;SDS011;16044;52.726;-2.108;2022-12-11T01:06:38;78.85;;;43.28;;
28934;SDS011;16044;52.726;-2.108;2022-12-11T01:09:05;73.88;;;40.38;;
28934;SDS011;16044;52.726;-2.108;2022-12-11T01:11:50;64.45;;;37.75;;
28934;SDS011;16044;52.726;-2.108;2022-12-11T01:14:17;64.72;;;37.97;;
28934;SDS011;16044;52.726;-2.108;2022-12-11T01:16:44;68.50;;;38.88;;
28934;SDS011;16044;52.726;-2.108;2022-12-11T01:19:12;60.83;;;35.50;;
28934;SDS011;16044;52.726;-2.108;2022-12-11T01:21:38;69.88;;;37.20;;
28934;SDS011;16044;52.726;-2.108;2022-12-11T01:24:06;62.28;;;36.25;;
28934;SDS011;16044;52.726;-2.108;2022-12-11T01:26:33;63.63;;;36.83;;
28934;SDS011;16044;52.726;-2.108;2022-12-11T01:29:00;70.75;;;39.17;;
28934;SDS011;16044;52.726;-2.108;2022-12-11T01:31:27;60.38;;;36.50;;
28934;SDS011;16044;52.726;-2.108;2022-12-11T01:33:55;62.28;;;35.60;;
28934;SDS011;16044;52.726;-2.108;2022-12-11T01:36:22;59.03;;;36.05;;
28934;SDS011;16044;52.726;-2.108;2022-12-11T01:38:49;65.75;;;36.35;;
28934;SDS011;16044;52.726;-2.108;2022-12-11T01:41:16;55.67;;;33.25;;
28934;SDS011;16044;52.726;-2.108;2022-12-11T01:46:52;70.20;;;39.47;;
28934;SDS011;16044;52.726;-2.108;2022-12-11T01:49:20;58.22;;;34.17;;
28934;SDS011;16044;52.726;-2.108;2022-12-11T01:54:49;59.75;;;35.80;;
28934;SDS011;16044;52.726;-2.108;2022-12-11T01:57:16;60.05;;;35.85;;
28934;SDS011;16044;52.726;-2.108;2022-12-11T01:59:44;63.20;;;36.05;;
28934;SDS011;16044;52.726;-2.108;2022-12-11T02:02:19;63.90;;;36.25;;
28934;SDS011;16044;52.726;-2.108;2022-12-11T02:04:52;63.05;;;35.75;;
28934;SDS011;16044;52.726;-2.108;2022-12-11T02:07:19;62.83;;;36.72;;
28934;SDS011;16044;52.726;-2.108;2022-12-11T02:09:46;63.22;;;36.50;;
28934;SDS011;16044;52.726;-2.108;2022-12-11T02:12:19;55.35;;;33.50;;
28934;SDS011;16044;52.726;-2.108;2022-12-11T02:15:05;58.78;;;33.63;;
28934;SDS011;16044;52.726;-2.108;2022-12-11T02:21:03;67.97;;;35.03;;
28934;SDS011;16044;52.726;-2.108;2022-12-11T02:27:02;53.00;;;31.33;;
28934;SDS011;16044;52.726;-2.108;2022-12-11T02:32:45;58.33;;;32.72;;
28934;SDS011;16044;52.726;-2.108;2022-12-11T02:35:23;49.85;;;30.02;;
28934;SDS011;16044;52.726;-2.108;2022-12-11T02:38:01;58.92;;;32.90;;
28934;SDS011;16044;52.726;-2.108;2022-12-11T02:40:36;57.90;;;31.92;;
28934;SDS011;16044;52.726;-2.108;2022-12-11T02:43:06;53.05;;;31.30;;
28934;SDS011;16044;52.726;-2.108;2022-12-11T02:45:37;60.20;;;33.97;;
28934;SDS011;16044;52.726;-2.108;2022-12-11T02:48:08;50.80;;;30.75;;
28934;SDS011;16044;52.726;-2.108;2022-12-11T02:50:38;54.78;;;31.40;;
28934;SDS011;16044;52.726;-2.108;2022-12-11T02:53:11;58.70;;;32.75;;
28934;SDS011;16044;52.726;-2.108;2022-12-11T02:55:41;53.55;;;32.75;;
28934;SDS011;16044;52.726;-2.108;2022-12-11T02:58:12;52.83;;;31.35;;
28934;SDS011;16044;52.726;-2.108;2022-12-11T03:00:44;57.28;;;31.75;;
28934;SDS011;16044;52.726;-2.108;2022-12-11T03:03:12;59.80;;;32.75;;
28934;SDS011;16044;52.726;-2.108;2022-12-11T03:05:39;57.55;;;31.83;;
28934;SDS011;16044;52.726;-2.108;2022-12-11T03:08:08;55.15;;;32.42;;
28934;SDS011;16044;52.726;-2.108;2022-12-11T03:10:35;49.50;;;30.27;;
28934;SDS011;16044;52.726;-2.108;2022-12-11T03:13:02;46.30;;;27.40;;
28934;SDS011;16044;52.726;-2.108;2022-12-11T03:15:32;50.63;;;28.45;;
28934;SDS011;16044;52.726;-2.108;2022-12-11T03:21:39;58.70;;;34.65;;
28934;SDS011;16044;52.726;-2.108;2022-12-11T03:24:19;62.63;;;33.83;;
28934;SDS011;16044;52.726;-2.108;2022-12-11T03:27:25;54.92;;;31.42;;
28934;SDS011;16044;52.726;-2.108;2022-12-11T03:30:12;52.13;;;31.08;;
28934;SDS011;16044;52.726;-2.108;2022-12-11T03:32:47;68.95;;;40.72;;
28934;SDS011;16044;52.726;-2.108;2022-12-11T03:35:38;68.75;;;40.15;;
28934;SDS011;16044;52.726;-2.108;2022-12-11T03:38:10;65.68;;;38.08;;
28934;SDS011;16044;52.726;-2.108;2022-12-11T03:40:42;46.93;;;26.87;;
28934;SDS011;16044;52.726;-2.108;2022-12-11T03:43:13;56.53;;;33.08;;
28934;SDS011;16044;52.726;-2.108;2022-12-11T03:45:42;59.75;;;33.80;;
28934;SDS011;16044;52.726;-2.108;2022-12-11T03:48:12;66.85;;;38.33;;
28934;SDS011;16044;52.726;-2.108;2022-12-11T03:50:41;66.80;;;37.38;;
28934;SDS011;16044;52.726;-2.108;2022-12-11T03:53:09;66.10;;;36.28;;
28934;SDS011;16044;52.726;-2.108;2022-12-11T03:55:36;69.80;;;36.72;;
28934;SDS011;16044;52.726;-2.108;2022-12-11T03:58:05;68.13;;;36.75;;
28934;SDS011;16044;52.726;-2.108;2022-12-11T04:00:32;66.95;;;37.63;;
28934;SDS011;16044;52.726;-2.108;2022-12-11T04:02:59;69.50;;;39.05;;
28934;SDS011;16044;52.726;-2.108;2022-12-11T04:05:40;63.42;;;37.00;;
28934;SDS011;16044;52.726;-2.108;2022-12-11T04:08:12;70.47;;;39.67;;
28934;SDS011;16044;52.726;-2.108;2022-12-11T04:10:40;63.95;;;35.67;;
28934;SDS011;16044;52.726;-2.108;2022-12-11T04:13:07;66.75;;;36.40;;
28934;SDS011;16044;52.726;-2.108;2022-12-11T04:15:36;59.95;;;35.67;;
28934;SDS011;16044;52.726;-2.108;2022-12-11T04:18:05;60.08;;;32.13;;
28934;SDS011;16044;52.726;-2.108;2022-12-11T04:21:12;58.20;;;31.52;;
28934;SDS011;16044;52.726;-2.108;2022-12-11T04:24:04;66.35;;;35.38;;
28934;SDS011;16044;52.726;-2.108;2022-12-11T04:26:41;55.55;;;30.58;;
28934;SDS011;16044;52.726;-2.108;2022-12-11T04:29:10;54.55;;;30.40;;
28934;SDS011;16044;52.726;-2.108;2022-12-11T04:31:38;58.80;;;31.73;;
28934;SDS011;16044;52.726;-2.108;2022-12-11T04:34:04;58.53;;;31.85;;
28934;SDS011;16044;52.726;-2.108;2022-12-11T04:36:32;54.65;;;30.77;;
28934;SDS011;16044;52.726;-2.108;2022-12-11T04:38:59;57.20;;;32.67;;
28934;SDS011;16044;52.726;-2.108;2022-12-11T04:41:25;60.22;;;34.10;;
28934;SDS011;16044;52.726;-2.108;2022-12-11T04:43:53;53.28;;;31.08;;
28934;SDS011;16044;52.726;-2.108;2022-12-11T04:46:20;55.28;;;32.13;;
28934;SDS011;16044;52.726;-2.108;2022-12-11T04:48:49;57.58;;;30.52;;
28934;SDS011;16044;52.726;-2.108;2022-12-11T04:51:22;66.07;;;35.72;;
28934;SDS011;16044;52.726;-2.108;2022-12-11T04:53:49;58.17;;;31.30;;
28934;SDS011;16044;52.726;-2.108;2022-12-11T04:56:16;63.55;;;33.95;;
28934;SDS011;16044;52.726;-2.108;2022-12-11T04:58:43;61.10;;;34.65;;
28934;SDS011;16044;52.726;-2.108;2022-12-11T05:01:14;65.97;;;35.92;;
28934;SDS011;16044;52.726;-2.108;2022-12-11T05:03:44;69.25;;;36.83;;
28934;SDS011;16044;52.726;-2.108;2022-12-11T05:06:12;64.60;;;34.38;;
28934;SDS011;16044;52.726;-2.108;2022-12-11T05:08:40;64.57;;;35.45;;
28934;SDS011;16044;52.726;-2.108;2022-12-11T05:11:09;68.53;;;36.08;;
28934;SDS011;16044;52.726;-2.108;2022-12-11T05:13:38;71.03;;;36.33;;
28934;SDS011;16044;52.726;-2.108;2022-12-11T05:16:07;63.30;;;34.75;;
28934;SDS011;16044;52.726;-2.108;2022-12-11T05:18:35;62.83;;;33.72;;
28934;SDS011;16044;52.726;-2.108;2022-12-11T05:21:05;70.32;;;36.08;;
28934;SDS011;16044;52.726;-2.108;2022-12-11T05:23:34;66.80;;;35.17;;
28934;SDS011;16044;52.726;-2.108;2022-12-11T05:26:07;66.40;;;32.72;;
28934;SDS011;16044;52.726;-2.108;2022-12-11T05:28:38;63.03;;;35.85;;
28934;SDS011;16044;52.726;-2.108;2022-12-11T05:31:15;64.40;;;34.92;;
28934;SDS011;16044;52.726;-2.108;2022-12-11T05:33:45;68.32;;;38.50;;
28934;SDS011;16044;52.726;-2.108;2022-12-11T05:36:24;64.88;;;35.55;;
28934;SDS011;16044;52.726;-2.108;2022-12-11T05:38:57;73.35;;;37.92;;
28934;SDS011;16044;52.726;-2.108;2022-12-11T05:41:27;65.47;;;36.15;;
28934;SDS011;16044;52.726;-2.108;2022-12-11T05:43:55;65.55;;;36.47;;
28934;SDS011;16044;52.726;-2.108;2022-12-11T05:46:23;75.72;;;38.58;;
28934;SDS011;16044;52.726;-2.108;2022-12-11T05:48:53;70.30;;;36.88;;
28934;SDS011;16044;52.726;-2.108;2022-12-11T05:51:23;60.95;;;33.92;;
28934;SDS011;16044;52.726;-2.108;2022-12-11T05:53:51;70.78;;;35.35;;
28934;SDS011;16044;52.726;-2.108;2022-12-11T05:56:21;66.22;;;36.78;;
28934;SDS011;16044;52.726;-2.108;2022-12-11T05:58:59;79.63;;;40.00;;
28934;SDS011;16044;52.726;-2.108;2022-12-11T06:01:29;85.88;;;41.20;;
28934;SDS011;16044;52.726;-2.108;2022-12-11T06:04:03;81.70;;;40.97;;
28934;SDS011;16044;52.726;-2.108;2022-12-11T06:06:35;115.18;;;49.88;;
28934;SDS011;16044;52.726;-2.108;2022-12-11T06:09:02;94.53;;;42.97;;
28934;SDS011;16044;52.726;-2.108;2022-12-11T06:11:31;114.18;;;48.25;;
28934;SDS011;16044;52.726;-2.108;2022-12-11T06:14:00;101.85;;;43.47;;
28934;SDS011;16044;52.726;-2.108;2022-12-11T06:16:29;117.68;;;47.10;;
28934;SDS011;16044;52.726;-2.108;2022-12-11T06:18:56;120.05;;;48.50;;
28934;SDS011;16044;52.726;-2.108;2022-12-11T06:23:58;145.03;;;52.27;;
28934;SDS011;16044;52.726;-2.108;2022-12-11T06:26:28;133.00;;;49.97;;
28934;SDS011;16044;52.726;-2.108;2022-12-11T06:28:55;149.68;;;53.13;;
28934;SDS011;16044;52.726;-2.108;2022-12-11T06:31:22;151.75;;;55.60;;
28934;SDS011;16044;52.726;-2.108;2022-12-11T06:33:49;163.45;;;58.50;;
28934;SDS011;16044;52.726;-2.108;2022-12-11T06:36:18;161.98;;;58.10;;
28934;SDS011;16044;52.726;-2.108;2022-12-11T06:38:47;142.40;;;52.63;;
28934;SDS011;16044;52.726;-2.108;2022-12-11T06:41:15;154.60;;;54.53;;
28934;SDS011;16044;52.726;-2.108;2022-12-11T06:43:42;149.65;;;56.30;;
28934;SDS011;16044;52.726;-2.108;2022-12-11T06:46:09;162.18;;;59.55;;
28934;SDS011;16044;52.726;-2.108;2022-12-11T06:48:40;154.65;;;59.03;;
28934;SDS011;16044;52.726;-2.108;2022-12-11T06:51:17;153.77;;;58.63;;
28934;SDS011;16044;52.726;-2.108;2022-12-11T06:53:51;156.13;;;57.95;;
28934;SDS011;16044;52.726;-2.108;2022-12-11T06:56:20;159.27;;;60.42;;
28934;SDS011;16044;52.726;-2.108;2022-12-11T06:58:48;150.65;;;54.95;;
28934;SDS011;16044;52.726;-2.108;2022-12-11T07:01:18;160.40;;;58.13;;
28934;SDS011;16044;52.726;-2.108;2022-12-11T07:03:51;171.85;;;63.30;;
28934;SDS011;16044;52.726;-2.108;2022-12-11T07:06:19;182.20;;;64.85;;
28934;SDS011;16044;52.726;-2.108;2022-12-11T07:08:46;172.63;;;62.40;;
28934;SDS011;16044;52.726;-2.108;2022-12-11T07:11:14;167.13;;;60.78;;
28934;SDS011;16044;52.726;-2.108;2022-12-11T07:13:43;172.02;;;60.25;;
28934;SDS011;16044;52.726;-2.108;2022-12-11T07:16:11;154.70;;;56.10;;
28934;SDS011;16044;52.726;-2.108;2022-12-11T07:18:40;150.38;;;55.45;;
28934;SDS011;16044;52.726;-2.108;2022-12-11T07:21:14;149.02;;;55.92;;
28934;SDS011;16044;52.726;-2.108;2022-12-11T07:23:41;181.90;;;61.42;;
28934;SDS011;16044;52.726;-2.108;2022-12-11T07:26:10;192.20;;;63.25;;
28934;SDS011;16044;52.726;-2.108;2022-12-11T07:28:40;154.93;;;55.05;;
28934;SDS011;16044;52.726;-2.108;2022-12-11T07:31:08;183.73;;;60.72;;
28934;SDS011;16044;52.726;-2.108;2022-12-11T07:33:41;170.53;;;56.30;;
28934;SDS011;16044;52.726;-2.108;2022-12-11T07:36:09;167.48;;;56.95;;
28934;SDS011;16044;52.726;-2.108;2022-12-11T07:38:38;177.27;;;59.35;;
28934;SDS011;16044;52.726;-2.108;2022-12-11T07:41:07;181.15;;;59.97;;
28934;SDS011;16044;52.726;-2.108;2022-12-11T07:43:37;173.13;;;59.60;;
28934;SDS011;16044;52.726;-2.108;2022-12-11T07:46:06;174.82;;;60.40;;
28934;SDS011;16044;52.726;-2.108;2022-12-11T07:48:45;174.80;;;60.97;;
28934;SDS011;16044;52.726;-2.108;2022-12-11T07:51:17;174.10;;;60.83;;
28934;SDS011;16044;52.726;-2.108;2022-12-11T07:53:52;181.25;;;63.47;;
28934;SDS011;16044;52.726;-2.108;2022-12-11T07:56:22;164.70;;;59.50;;
28934;SDS011;16044;52.726;-2.108;2022-12-11T07:58:49;177.93;;;63.67;;
28934;SDS011;16044;52.726;-2.108;2022-12-11T08:01:18;175.10;;;60.15;;
28934;SDS011;16044;52.726;-2.108;2022-12-11T08:03:48;155.85;;;58.13;;
28934;SDS011;16044;52.726;-2.108;2022-12-11T08:06:16;180.88;;;62.60;;
28934;SDS011;16044;52.726;-2.108;2022-12-11T08:08:44;165.95;;;60.80;;
28934;SDS011;16044;52.726;-2.108;2022-12-11T08:11:11;179.68;;;62.63;;
28934;SDS011;16044;52.726;-2.108;2022-12-11T08:13:40;148.05;;;56.40;;
28934;SDS011;16044;52.726;-2.108;2022-12-11T08:16:09;181.65;;;64.93;;
28934;SDS011;16044;52.726;-2.108;2022-12-11T08:18:39;153.95;;;57.88;;
28934;SDS011;16044;52.726;-2.108;2022-12-11T08:21:07;155.45;;;60.28;;
28934;SDS011;16044;52.726;-2.108;2022-12-11T08:23:45;157.10;;;60.63;;
28934;SDS011;16044;52.726;-2.108;2022-12-11T08:26:15;166.95;;;62.90;;
28934;SDS011;16044;52.726;-2.108;2022-12-11T08:28:45;163.23;;;60.85;;
28934;SDS011;16044;52.726;-2.108;2022-12-11T08:31:16;168.27;;;60.97;;
28934;SDS011;16044;52.726;-2.108;2022-12-11T08:33:43;169.57;;;59.13;;
28934;SDS011;16044;52.726;-2.108;2022-12-11T08:36:12;161.95;;;57.72;;
28934;SDS011;16044;52.726;-2.108;2022-12-11T08:38:42;178.50;;;62.67;;
28934;SDS011;16044;52.726;-2.108;2022-12-11T08:43:58;168.65;;;60.03;;
28934;SDS011;16044;52.726;-2.108;2022-12-11T08:46:28;179.48;;;64.25;;
28934;SDS011;16044;52.726;-2.108;2022-12-11T08:48:57;183.98;;;64.40;;
28934;SDS011;16044;52.726;-2.108;2022-12-11T08:51:25;189.65;;;65.22;;
28934;SDS011;16044;52.726;-2.108;2022-12-11T08:53:55;168.68;;;60.60;;
28934;SDS011;16044;52.726;-2.108;2022-12-11T08:56:24;178.00;;;62.80;;
28934;SDS011;16044;52.726;-2.108;2022-12-11T08:58:53;175.38;;;62.08;;
28934;SDS011;16044;52.726;-2.108;2022-12-11T09:01:22;167.07;;;59.15;;
28934;SDS011;16044;52.726;-2.108;2022-12-11T09:03:52;161.05;;;58.58;;
28934;SDS011;16044;52.726;-2.108;2022-12-11T09:06:21;157.18;;;58.83;;
28934;SDS011;16044;52.726;-2.108;2022-12-11T09:08:50;169.55;;;60.92;;
28934;SDS011;16044;52.726;-2.108;2022-12-11T09:11:22;184.23;;;66.82;;
28934;SDS011;16044;52.726;-2.108;2022-12-11T09:13:53;158.43;;;59.13;;
28934;SDS011;16044;52.726;-2.108;2022-12-11T09:16:22;165.98;;;62.00;;
28934;SDS011;16044;52.726;-2.108;2022-12-11T09:18:53;171.77;;;61.72;;
28934;SDS011;16044;52.726;-2.108;2022-12-11T09:21:24;166.90;;;63.40;;
28934;SDS011;16044;52.726;-2.108;2022-12-11T09:23:54;162.20;;;60.95;;
28934;SDS011;16044;52.726;-2.108;2022-12-11T09:26:24;151.40;;;57.63;;
28934;SDS011;16044;52.726;-2.108;2022-12-11T09:28:52;155.13;;;57.67;;
28934;SDS011;16044;52.726;-2.108;2022-12-11T09:31:24;152.23;;;55.60;;
28934;SDS011;16044;52.726;-2.108;2022-12-11T09:33:59;163.93;;;58.90;;
28934;SDS011;16044;52.726;-2.108;2022-12-11T09:36:29;168.90;;;62.25;;
28934;SDS011;16044;52.726;-2.108;2022-12-11T09:39:01;159.55;;;56.65;;
28934;SDS011;16044;52.726;-2.108;2022-12-11T09:41:34;162.43;;;60.53;;
28934;SDS011;16044;52.726;-2.108;2022-12-11T09:46:46;171.13;;;60.70;;
28934;SDS011;16044;52.726;-2.108;2022-12-11T09:52:10;140.48;;;52.65;;
28934;SDS011;16044;52.726;-2.108;2022-12-11T09:54:49;154.52;;;58.03;;
28934;SDS011;16044;52.726;-2.108;2022-12-11T09:57:39;159.43;;;61.20;;
28934;SDS011;16044;52.726;-2.108;2022-12-11T10:00:37;141.77;;;56.67;;
28934;SDS011;16044;52.726;-2.108;2022-12-11T10:06:35;157.35;;;62.80;;
28934;SDS011;16044;52.726;-2.108;2022-12-11T10:17:31;138.30;;;55.00;;
28934;SDS011;16044;52.726;-2.108;2022-12-11T10:20:02;146.60;;;55.72;;
28934;SDS011;16044;52.726;-2.108;2022-12-11T10:23:16;149.98;;;55.50;;
28934;SDS011;16044;52.726;-2.108;2022-12-11T10:25:49;141.88;;;53.40;;
28934;SDS011;16044;52.726;-2.108;2022-12-11T10:28:21;146.88;;;53.97;;
28934;SDS011;16044;52.726;-2.108;2022-12-11T10:36:31;134.27;;;51.28;;
28934;SDS011;16044;52.726;-2.108;2022-12-11T10:39:02;142.10;;;50.58;;
28934;SDS011;16044;52.726;-2.108;2022-12-11T10:41:36;144.82;;;51.42;;
28934;SDS011;16044;52.726;-2.108;2022-12-11T10:44:17;145.10;;;51.42;;
28934;SDS011;16044;52.726;-2.108;2022-12-11T10:47:04;145.85;;;51.13;;
28934;SDS011;16044;52.726;-2.108;2022-12-11T10:49:32;144.57;;;50.33;;
28934;SDS011;16044;52.726;-2.108;2022-12-11T10:52:01;134.85;;;50.42;;
28934;SDS011;16044;52.726;-2.108;2022-12-11T10:54:58;137.55;;;50.33;;
28934;SDS011;16044;52.726;-2.108;2022-12-11T10:58:05;141.38;;;48.97;;
28934;SDS011;16044;52.726;-2.108;2022-12-11T11:00:34;136.63;;;50.30;;
28934;SDS011;16044;52.726;-2.108;2022-12-11T11:03:05;139.48;;;49.75;;
28934;SDS011;16044;52.726;-2.108;2022-12-11T11:06:00;128.23;;;46.80;;
28934;SDS011;16044;52.726;-2.108;2022-12-11T11:08:47;134.00;;;47.78;;
28934;SDS011;16044;52.726;-2.108;2022-12-11T11:11:24;129.30;;;46.78;;
28934;SDS011;16044;52.726;-2.108;2022-12-11T11:16:48;143.82;;;46.30;;
28934;SDS011;16044;52.726;-2.108;2022-12-11T11:19:23;147.80;;;48.13;;
28934;SDS011;16044;52.726;-2.108;2022-12-11T11:21:58;153.85;;;51.60;;
28934;SDS011;16044;52.726;-2.108;2022-12-11T11:24:43;150.73;;;53.38;;
28934;SDS011;16044;52.726;-2.108;2022-12-11T11:27:32;149.40;;;51.25;;
28934;SDS011;16044;52.726;-2.108;2022-12-11T11:32:58;135.55;;;46.45;;
28934;SDS011;16044;52.726;-2.108;2022-12-11T11:35:30;128.98;;;45.70;;
28934;SDS011;16044;52.726;-2.108;2022-12-11T11:38:17;129.30;;;45.05;;
28934;SDS011;16044;52.726;-2.108;2022-12-11T11:40:50;115.50;;;40.80;;
28934;SDS011;16044;52.726;-2.108;2022-12-11T11:46:42;118.35;;;42.05;;
28934;SDS011;16044;52.726;-2.108;2022-12-11T11:49:19;111.05;;;40.83;;
28934;SDS011;16044;52.726;-2.108;2022-12-11T11:54:39;109.13;;;41.92;;
28934;SDS011;16044;52.726;-2.108;2022-12-11T11:57:17;109.78;;;40.33;;
28934;SDS011;16044;52.726;-2.108;2022-12-11T12:00:04;113.97;;;41.33;;
28934;SDS011;16044;52.726;-2.108;2022-12-11T12:03:08;128.35;;;43.92;;
28934;SDS011;16044;52.726;-2.108;2022-12-11T12:08:42;108.22;;;38.42;;
28934;SDS011;16044;52.726;-2.108;2022-12-11T12:17:25;126.28;;;42.85;;
28934;SDS011;16044;52.726;-2.108;2022-12-11T12:20:16;122.35;;;41.53;;
28934;SDS011;16044;52.726;-2.108;2022-12-11T12:43:27;158.50;;;48.92;;
28934;SDS011;16044;52.726;-2.108;2022-12-11T12:48:36;157.48;;;48.75;;
28934;SDS011;16044;52.726;-2.108;2022-12-11T12:51:04;146.27;;;46.70;;
28934;SDS011;16044;52.726;-2.108;2022-12-11T12:53:33;146.65;;;46.00;;
28934;SDS011;16044;52.726;-2.108;2022-12-11T12:56:02;135.80;;;45.13;;
28934;SDS011;16044;52.726;-2.108;2022-12-11T13:01:07;113.82;;;39.90;;
28934;SDS011;16044;52.726;-2.108;2022-12-11T13:03:53;119.25;;;41.42;;
28934;SDS011;16044;52.726;-2.108;2022-12-11T13:06:27;119.20;;;39.33;;
28934;SDS011;16044;52.726;-2.108;2022-12-11T13:08:56;124.85;;;42.10;;
28934;SDS011;16044;52.726;-2.108;2022-12-11T13:11:31;130.50;;;41.65;;
28934;SDS011;16044;52.726;-2.108;2022-12-11T13:16:46;118.68;;;42.22;;
28934;SDS011;16044;52.726;-2.108;2022-12-11T13:24:31;132.93;;;41.00;;
28934;SDS011;16044;52.726;-2.108;2022-12-11T13:32:41;136.77;;;44.83;;
28934;SDS011;16044;52.726;-2.108;2022-12-11T13:35:40;129.25;;;41.78;;
28934;SDS011;16044;52.726;-2.108;2022-12-11T13:38:14;140.27;;;43.85;;
28934;SDS011;16044;52.726;-2.108;2022-12-11T13:40:45;139.30;;;42.30;;
28934;SDS011;16044;52.726;-2.108;2022-12-11T13:43:24;139.13;;;44.90;;
28934;SDS011;16044;52.726;-2.108;2022-12-11T13:45:58;141.43;;;45.10;;
28934;SDS011;16044;52.726;-2.108;2022-12-11T13:48:28;144.63;;;43.72;;
28934;SDS011;16044;52.726;-2.108;2022-12-11T13:53:30;135.02;;;41.05;;
28934;SDS011;16044;52.726;-2.108;2022-12-11T13:55:58;140.23;;;41.17;;
28934;SDS011;16044;52.726;-2.108;2022-12-11T13:58:36;129.60;;;41.03;;
28934;SDS011;16044;52.726;-2.108;2022-12-11T14:01:06;139.10;;;42.22;;
28934;SDS011;16044;52.726;-2.108;2022-12-11T14:03:40;133.43;;;40.85;;
28934;SDS011;16044;52.726;-2.108;2022-12-11T14:06:16;126.95;;;39.63;;
28934;SDS011;16044;52.726;-2.108;2022-12-11T14:08:44;118.00;;;39.42;;
28934;SDS011;16044;52.726;-2.108;2022-12-11T14:11:17;128.65;;;39.58;;
28934;SDS011;16044;52.726;-2.108;2022-12-11T14:13:58;120.90;;;40.28;;
28934;SDS011;16044;52.726;-2.108;2022-12-11T14:16:30;129.90;;;41.72;;
28934;SDS011;16044;52.726;-2.108;2022-12-11T14:19:01;122.45;;;39.83;;
28934;SDS011;16044;52.726;-2.108;2022-12-11T14:21:36;124.70;;;42.78;;
28934;SDS011;16044;52.726;-2.108;2022-12-11T14:24:03;122.05;;;42.72;;
28934;SDS011;16044;52.726;-2.108;2022-12-11T14:26:33;109.30;;;37.28;;
28934;SDS011;16044;52.726;-2.108;2022-12-11T14:29:03;130.82;;;42.55;;
28934;SDS011;16044;52.726;-2.108;2022-12-11T14:31:33;116.55;;;40.05;;
28934;SDS011;16044;52.726;-2.108;2022-12-11T14:37:01;127.38;;;44.08;;
28934;SDS011;16044;52.726;-2.108;2022-12-11T14:39:33;132.60;;;43.78;;
28934;SDS011;16044;52.726;-2.108;2022-12-11T14:44:47;126.95;;;44.03;;
28934;SDS011;16044;52.726;-2.108;2022-12-11T14:47:21;121.68;;;41.72;;
28934;SDS011;16044;52.726;-2.108;2022-12-11T14:50:04;120.18;;;40.95;;
28934;SDS011;16044;52.726;-2.108;2022-12-11T14:52:41;119.07;;;39.65;;
28934;SDS011;16044;52.726;-2.108;2022-12-11T14:55:15;111.50;;;39.08;;
28934;SDS011;16044;52.726;-2.108;2022-12-11T14:57:51;123.05;;;42.05;;
28934;SDS011;16044;52.726;-2.108;2022-12-11T15:00:44;127.15;;;43.03;;
28934;SDS011;16044;52.726;-2.108;2022-12-11T15:03:32;130.75;;;44.08;;
28934;SDS011;16044;52.726;-2.108;2022-12-11T15:06:23;122.18;;;42.83;;
28934;SDS011;16044;52.726;-2.108;2022-12-11T15:08:54;114.90;;;41.17;;
28934;SDS011;16044;52.726;-2.108;2022-12-11T15:11:21;118.65;;;41.30;;
28934;SDS011;16044;52.726;-2.108;2022-12-11T15:13:57;116.47;;;40.22;;
28934;SDS011;16044;52.726;-2.108;2022-12-11T15:16:27;107.82;;;41.90;;
28934;SDS011;16044;52.726;-2.108;2022-12-11T15:18:58;103.10;;;40.40;;
28934;SDS011;16044;52.726;-2.108;2022-12-11T15:21:31;112.22;;;40.70;;
28934;SDS011;16044;52.726;-2.108;2022-12-11T15:24:01;106.50;;;40.20;;
28934;SDS011;16044;52.726;-2.108;2022-12-11T15:26:32;109.47;;;40.60;;
28934;SDS011;16044;52.726;-2.108;2022-12-11T15:29:29;106.20;;;38.97;;
28934;SDS011;16044;52.726;-2.108;2022-12-11T15:34:40;102.75;;;39.30;;
28934;SDS011;16044;52.726;-2.108;2022-12-11T15:40:16;101.10;;;37.17;;
28934;SDS011;16044;52.726;-2.108;2022-12-11T15:42:43;126.38;;;47.20;;
28934;SDS011;16044;52.726;-2.108;2022-12-11T15:45:14;121.40;;;44.97;;
28934;SDS011;16044;52.726;-2.108;2022-12-11T15:47:47;116.75;;;46.03;;
28934;SDS011;16044;52.726;-2.108;2022-12-11T15:52:54;115.25;;;44.35;;
28934;SDS011;16044;52.726;-2.108;2022-12-11T15:55:22;119.03;;;42.38;;
28934;SDS011;16044;52.726;-2.108;2022-12-11T15:57:56;108.38;;;39.90;;
28934;SDS011;16044;52.726;-2.108;2022-12-11T16:00:27;107.80;;;40.63;;
28934;SDS011;16044;52.726;-2.108;2022-12-11T16:02:55;114.85;;;41.35;;
28934;SDS011;16044;52.726;-2.108;2022-12-11T16:05:23;118.25;;;43.55;;
28934;SDS011;16044;52.726;-2.108;2022-12-11T16:07:52;109.00;;;41.47;;
28934;SDS011;16044;52.726;-2.108;2022-12-11T16:10:20;113.75;;;40.67;;
28934;SDS011;16044;52.726;-2.108;2022-12-11T16:12:47;109.88;;;42.05;;
28934;SDS011;16044;52.726;-2.108;2022-12-11T16:15:14;111.43;;;40.70;;
28934;SDS011;16044;52.726;-2.108;2022-12-11T16:20:16;108.18;;;39.40;;
28934;SDS011;16044;52.726;-2.108;2022-12-11T16:22:44;104.68;;;39.53;;
28934;SDS011;16044;52.726;-2.108;2022-12-11T16:25:10;109.47;;;39.92;;
28934;SDS011;16044;52.726;-2.108;2022-12-11T16:27:38;108.03;;;39.45;;
28934;SDS011;16044;52.726;-2.108;2022-12-11T16:30:05;104.30;;;38.55;;
28934;SDS011;16044;52.726;-2.108;2022-12-11T16:32:32;107.05;;;38.75;;
28934;SDS011;16044;52.726;-2.108;2022-12-11T16:34:59;94.07;;;36.97;;